createdAt,value
2018-09-24T00:01:38.251Z,100827.11
2018-09-24T00:04:14.671Z,100825.23
2018-09-24T00:09:13.767Z,100821.73
2018-09-24T00:11:49.807Z,100812.84
2018-09-24T00:14:26.105Z,100825.23
2018-09-24T00:17:02.269Z,100822.88
2018-09-24T00:19:38.300Z,100823.08
2018-09-24T00:22:14.910Z,100821.20
2018-09-24T00:24:51.466Z,100820.90
2018-09-24T00:27:27.912Z,100809.47
2018-09-24T00:30:04.163Z,100820.06
2018-09-24T00:32:40.357Z,100825.10
2018-09-24T00:35:16.923Z,100822.95
2018-09-24T00:37:52.994Z,100822.41
2018-09-24T00:40:29.371Z,100819.94
2018-09-24T00:43:06.093Z,100824.47
2018-09-24T00:45:44.097Z,100821.36
2018-09-24T00:48:21.111Z,100822.38
2018-09-24T00:50:57.512Z,100818.05
2018-09-24T00:53:33.760Z,100823.92
2018-09-24T00:56:10.100Z,100823.30
2018-09-24T00:58:46.227Z,100818.09
2018-09-24T01:01:22.335Z,100819.27
2018-09-24T01:03:59.149Z,100822.45
2018-09-24T01:06:35.424Z,100817.08
2018-09-24T01:09:14.568Z,100816.75
2018-09-24T01:11:51.606Z,100817.58
2018-09-24T01:14:28.187Z,100815.73
2018-09-24T01:17:04.603Z,100814.23
2018-09-24T01:19:41.009Z,100817.13
2018-09-24T01:22:17.365Z,100815.48
2018-09-24T01:24:54.281Z,100814.95
2018-09-24T01:27:30.906Z,100813.60
2018-09-24T01:30:06.852Z,100816.83
2018-09-24T01:32:43.505Z,100815.16
2018-09-24T01:35:20.271Z,100814.52
2018-09-24T01:37:56.759Z,100816.37
2018-09-24T01:40:33.133Z,100819.56
2018-09-24T01:43:09.662Z,100815.03
2018-09-24T01:45:46.331Z,100808.52
2018-09-24T01:48:23.087Z,100810.70
2018-09-24T01:50:59.382Z,100807.17
2018-09-24T01:53:35.638Z,100804.16
2018-09-24T01:56:12.599Z,100804.16
2018-09-24T01:58:48.882Z,100800.83
2018-09-24T02:01:25.115Z,100808.27
2018-09-24T02:04:01.354Z,100812.80
2018-09-24T02:06:37.523Z,100813.84
2018-09-24T02:09:14.072Z,100814.73
2018-09-24T02:11:50.595Z,100819.29
2018-09-24T02:14:27.780Z,100823.70
2018-09-24T02:17:04.415Z,100821.84
2018-09-24T02:19:40.954Z,100826.89
2018-09-24T02:22:19.668Z,100821.72
2018-09-24T02:24:55.695Z,100825.95
2018-09-24T02:27:33.187Z,100828.64
2018-09-24T02:30:10.357Z,100825.29
2018-09-24T02:32:47.139Z,100838.08
2018-09-24T02:35:23.785Z,100842.31
2018-09-24T02:38:00.263Z,100846.22
2018-09-24T02:40:37.126Z,100856.32
2018-09-24T02:43:14.198Z,100858.70
2018-09-24T02:45:50.598Z,100859.41
2018-09-24T02:48:27.683Z,100860.92
2018-09-24T02:51:04.295Z,100859.28
2018-09-24T02:53:44.754Z,100860.16
2018-09-24T02:56:21.554Z,100860.16
2018-09-24T02:58:58.117Z,100854.42
2018-09-24T03:01:38.858Z,100861.77
2018-09-24T03:04:15.179Z,100864.13
2018-09-24T03:06:51.657Z,100863.19
2018-09-24T03:09:28.169Z,100862.81
2018-09-24T03:12:04.723Z,100863.86
2018-09-24T03:14:41.002Z,100866.71
2018-09-24T03:17:21.866Z,100865.23
2018-09-24T03:19:58.391Z,100867.92
2018-09-24T03:22:34.906Z,100869.12
2018-09-24T03:25:11.974Z,100861.61
2018-09-24T03:27:48.068Z,100865.80
2018-09-24T03:30:24.265Z,100860.64
2018-09-24T03:33:00.681Z,100868.39
2018-09-24T03:35:37.379Z,100874.43
2018-09-24T03:38:14.154Z,100865.30
2018-09-24T03:40:50.328Z,100875.66
2018-09-24T03:43:26.778Z,100879.69
2018-09-24T03:46:03.107Z,100867.78
2018-09-24T03:48:38.984Z,100871.17
2018-09-24T03:51:15.569Z,100862.98
2018-09-24T03:53:53.874Z,100862.17
2018-09-24T03:56:30.274Z,100866.56
2018-09-24T03:59:06.818Z,100865.09
2018-09-24T04:01:42.799Z,100870.96
2018-09-24T04:04:22.749Z,100866.12
2018-09-24T04:07:03.163Z,100871.16
2018-09-24T04:09:43.259Z,100871.66
2018-09-24T04:12:23.638Z,100873.00
2018-09-24T04:15:04.028Z,100873.20
2018-09-24T04:17:44.370Z,100876.89
2018-09-24T04:20:24.745Z,100884.30
2018-09-24T04:23:05.330Z,100888.53
2018-09-24T04:25:45.669Z,100892.91
2018-09-24T04:28:25.986Z,100897.47
2018-09-24T04:31:05.429Z,100892.27
2018-09-24T04:33:44.903Z,100892.77
2018-09-24T04:36:24.496Z,100885.56
2018-09-24T04:39:03.973Z,100889.59
2018-09-24T04:41:43.556Z,100891.57
2018-09-24T04:44:23.238Z,100880.70
2018-09-24T04:47:02.760Z,100879.89
2018-09-24T04:49:42.760Z,100882.05
2018-09-24T04:52:23.177Z,100880.70
2018-09-24T04:55:03.353Z,100880.20
2018-09-24T04:57:43.169Z,100878.86
2018-09-24T05:00:24.288Z,100882.38
2018-09-24T05:03:04.649Z,100875.88
2018-09-24T05:07:11.385Z,100878.28
2018-09-24T05:09:51.185Z,100880.95
2018-09-24T05:12:31.345Z,100880.59
2018-09-24T05:15:11.673Z,100882.94
2018-09-24T05:17:51.603Z,100886.12
2018-09-24T05:20:31.181Z,100880.95
2018-09-24T05:23:11.353Z,100877.44
2018-09-24T05:25:51.783Z,100884.64
2018-09-24T05:28:31.641Z,100880.81
2018-09-24T05:31:11.821Z,100877.86
2018-09-24T05:33:52.241Z,100886.05
2018-09-24T05:36:32.146Z,100884.40
2018-09-24T05:39:14.032Z,100881.72
2018-09-24T05:41:54.111Z,100880.54
2018-09-24T05:44:34.068Z,100882.55
2018-09-24T05:47:14.165Z,100878.36
2018-09-24T05:51:30.809Z,100882.72
2018-09-24T05:57:22.378Z,100880.52
2018-09-24T06:00:02.166Z,100884.92
2018-09-24T06:02:41.933Z,100886.84
2018-09-24T06:05:22.374Z,100885.14
2018-09-24T06:09:30.403Z,100881.62
2018-09-24T06:12:10.807Z,100876.86
2018-09-24T06:14:48.712Z,100880.19
2018-09-24T06:17:29.793Z,100875.13
2018-09-24T06:20:10.227Z,100883.64
2018-09-24T06:22:50.044Z,100883.11
2018-09-24T06:25:29.923Z,100889.31
2018-09-24T06:28:10.224Z,100886.97
2018-09-24T06:30:50.790Z,100885.63
2018-09-24T06:33:31.202Z,100882.75
2018-09-24T06:36:11.220Z,100878.72
2018-09-24T06:38:51.587Z,100876.88
2018-09-24T06:41:31.448Z,100880.39
2018-09-24T06:44:11.442Z,100877.01
2018-09-24T06:46:51.380Z,100879.16
2018-09-24T06:49:31.440Z,100877.01
2018-09-24T06:52:11.229Z,100879.30
2018-09-24T06:54:51.278Z,100870.40
2018-09-24T06:57:30.996Z,100871.74
2018-09-24T07:02:26.825Z,100867.55
2018-09-24T07:05:07.055Z,100868.89
2018-09-24T07:07:47.054Z,100870.03
2018-09-24T07:10:27.029Z,100879.23
2018-09-24T07:13:06.810Z,100874.89
2018-09-24T07:15:47.069Z,100871.71
2018-09-24T07:18:27.041Z,100865.30
2018-09-24T07:21:07.030Z,100865.50
2018-09-24T07:23:47.100Z,100863.83
2018-09-24T07:26:27.034Z,100859.16
2018-09-24T07:29:07.245Z,100857.18
2018-09-24T07:31:48.050Z,100854.06
2018-09-24T07:34:28.069Z,100856.41
2018-09-24T07:37:08.241Z,100853.22
2018-09-24T07:39:48.078Z,100854.23
2018-09-24T07:42:28.409Z,100852.25
2018-09-24T07:45:08.400Z,100856.27
2018-09-24T07:47:48.825Z,100851.11
2018-09-24T07:50:28.813Z,100853.45
2018-09-24T07:53:09.248Z,100853.66
2018-09-24T07:55:49.263Z,100862.74
2018-09-24T07:58:29.307Z,100863.25
2018-09-24T08:01:09.302Z,100865.29
2018-09-24T08:03:49.406Z,100866.12
2018-09-24T08:06:29.860Z,100867.84
2018-09-24T08:09:10.114Z,100871.02
2018-09-24T08:11:50.206Z,100872.87
2018-09-24T08:14:30.364Z,100868.20
2018-09-24T08:17:10.078Z,100869.55
2018-09-24T08:19:50.070Z,100872.93
2018-09-24T08:22:30.394Z,100871.28
2018-09-24T08:25:10.437Z,100874.97
2018-09-24T08:27:50.729Z,100869.30
2018-09-24T08:30:31.013Z,100865.78
2018-09-24T08:33:11.253Z,100859.07
2018-09-24T08:35:51.084Z,100863.59
2018-09-24T08:38:31.004Z,100856.55
2018-09-24T08:41:11.061Z,100860.91
2018-09-24T08:43:51.086Z,100861.28
2018-09-24T08:46:31.424Z,100859.94
2018-09-24T08:49:11.482Z,100867.98
2018-09-24T08:51:51.761Z,100857.16
2018-09-24T08:54:31.709Z,100870.03
2018-09-24T08:57:12.317Z,100861.03
2018-09-24T08:59:52.278Z,100855.03
2018-09-24T09:02:32.672Z,100853.86
2018-09-24T09:05:12.842Z,100851.70
2018-09-24T09:07:52.757Z,100852.38
2018-09-24T09:10:32.881Z,100859.25
2018-09-24T09:13:12.921Z,100858.11
2018-09-24T09:15:52.780Z,100855.59
2018-09-24T09:18:33.069Z,100853.44
2018-09-24T09:21:13.061Z,100849.47
2018-09-24T09:23:53.130Z,100852.66
2018-09-24T09:26:33.227Z,100850.14
2018-09-24T09:29:13.269Z,100850.84
2018-09-24T09:31:53.273Z,100843.33
2018-09-24T09:34:33.453Z,100844.84
2018-09-24T09:37:13.475Z,100841.84
2018-09-24T09:39:53.973Z,100845.23
2018-09-24T09:42:34.119Z,100839.22
2018-09-24T09:45:13.889Z,100842.57
2018-09-24T09:47:54.284Z,100845.79
2018-09-24T09:50:34.236Z,100842.97
2018-09-24T09:53:14.240Z,100842.12
2018-09-24T09:55:54.292Z,100844.67
2018-09-24T09:58:34.096Z,100843.83
2018-09-24T10:01:14.051Z,100841.34
2018-09-24T10:03:54.424Z,100841.34
2018-09-24T10:06:34.288Z,100835.53
2018-09-24T10:09:16.882Z,100832.66
2018-09-24T10:11:57.248Z,100833.86
2018-09-24T10:14:37.625Z,100829.70
2018-09-24T10:17:17.930Z,100829.70
2018-09-24T10:19:58.250Z,100832.77
2018-09-24T10:22:38.327Z,100834.47
2018-09-24T10:25:18.405Z,100834.83
2018-09-24T10:27:58.125Z,100829.47
2018-09-24T10:30:38.253Z,100830.36
2018-09-24T10:33:18.193Z,100823.52
2018-09-24T10:35:58.894Z,100820.53
2018-09-24T10:38:39.309Z,100822.87
2018-09-24T10:41:19.291Z,100820.39
2018-09-24T10:43:59.377Z,100825.91
2018-09-24T10:46:39.316Z,100822.05
2018-09-24T10:49:19.140Z,100821.91
2018-09-24T10:51:58.986Z,100824.28
2018-09-24T10:54:38.942Z,100823.10
2018-09-24T10:57:19.072Z,100821.66
2018-09-24T10:59:59.465Z,100815.95
2018-09-24T11:02:39.750Z,100812.44
2018-09-24T11:05:19.301Z,100819.33
2018-09-24T11:07:59.226Z,100816.84
2018-09-24T11:10:39.041Z,100818.34
2018-09-24T11:13:18.807Z,100815.52
2018-09-24T11:15:59.143Z,100814.38
2018-09-24T11:18:39.398Z,100821.27
2018-09-24T11:21:19.872Z,100822.80
2018-09-24T11:23:59.833Z,100829.49
2018-09-24T11:26:40.373Z,100831.00
2018-09-24T11:29:20.229Z,100829.84
2018-09-24T11:32:00.230Z,100833.53
2018-09-24T11:34:40.166Z,100831.04
2018-09-24T11:37:19.947Z,100827.86
2018-09-24T11:40:00.223Z,100827.52
2018-09-24T11:42:40.271Z,100826.87
2018-09-24T11:45:20.173Z,100829.55
2018-09-24T11:48:00.070Z,100830.25
2018-09-24T11:50:40.222Z,100827.77
2018-09-24T11:53:19.965Z,100827.27
2018-09-24T11:56:00.031Z,100830.14
2018-09-24T11:58:40.176Z,100832.83
2018-09-24T12:01:19.953Z,100837.73
2018-09-24T12:04:00.225Z,100837.08
2018-09-24T12:06:40.225Z,100843.77
2018-09-24T12:09:20.814Z,100840.45
2018-09-24T12:12:00.944Z,100840.10
2018-09-24T12:14:40.801Z,100845.81
2018-09-24T12:17:20.843Z,100839.80
2018-09-24T12:20:00.673Z,100843.33
2018-09-24T12:22:41.058Z,100835.48
2018-09-24T12:25:21.240Z,100847.53
2018-09-24T12:28:01.642Z,100843.17
2018-09-24T12:30:41.269Z,100843.86
2018-09-24T12:33:21.264Z,100849.22
2018-09-24T12:36:01.405Z,100840.53
2018-09-24T12:38:41.233Z,100854.08
2018-09-24T12:41:21.033Z,100841.19
2018-09-24T12:44:00.988Z,100850.22
2018-09-24T12:46:40.949Z,100840.55
2018-09-24T12:49:20.814Z,100844.22
2018-09-24T12:52:00.818Z,100840.89
2018-09-24T12:54:40.986Z,100846.25
2018-09-24T12:57:21.418Z,100845.94
2018-09-24T13:00:01.533Z,100845.94
2018-09-24T13:02:41.198Z,100847.97
2018-09-24T13:05:21.831Z,100843.27
2018-09-24T13:08:02.039Z,100849.15
2018-09-24T13:10:42.249Z,100851.34
2018-09-24T13:13:22.074Z,100849.69
2018-09-24T13:16:02.510Z,100846.36
2018-09-24T13:18:42.356Z,100853.09
2018-09-24T13:21:22.410Z,100849.92
2018-09-24T13:24:02.258Z,100848.92
2018-09-24T13:26:42.253Z,100855.15
2018-09-24T13:29:22.286Z,100854.50
2018-09-24T13:32:02.046Z,100858.86
2018-09-24T13:34:41.824Z,100855.72
2018-09-24T13:37:22.081Z,100855.25
2018-09-24T13:40:02.211Z,100847.91
2018-09-24T13:42:42.397Z,100857.64
2018-09-24T13:45:22.054Z,100857.98
2018-09-24T13:48:02.104Z,100862.98
2018-09-24T13:50:41.840Z,100862.98
2018-09-24T13:53:22.015Z,100861.34
2018-09-24T13:56:01.985Z,100864.69
2018-09-24T13:58:42.261Z,100866.37
2018-09-24T14:01:22.216Z,100871.06
2018-09-24T14:04:02.262Z,100870.41
2018-09-24T14:06:42.129Z,100869.41
2018-09-24T14:09:23.085Z,100868.09
2018-09-24T14:12:03.437Z,100875.46
2018-09-24T14:14:43.255Z,100874.15
2018-09-24T14:17:23.329Z,100870.47
2018-09-24T14:20:03.734Z,100878.67
2018-09-24T14:22:44.095Z,100881.19
2018-09-24T14:25:24.043Z,100889.55
2018-09-24T14:28:04.097Z,100880.21
2018-09-24T14:30:43.939Z,100884.90
2018-09-24T14:33:24.009Z,100894.44
2018-09-24T14:36:03.940Z,100891.10
2018-09-24T14:38:46.717Z,100894.77
2018-09-24T14:41:26.409Z,100894.11
2018-09-24T14:44:07.018Z,100896.12
2018-09-24T14:46:47.125Z,100901.80
2018-09-24T14:49:29.316Z,100904.34
2018-09-24T14:52:09.449Z,100910.02
2018-09-24T14:54:49.833Z,100914.34
2018-09-24T14:57:29.854Z,100918.05
2018-09-24T15:00:10.303Z,100923.39
2018-09-24T15:02:50.120Z,100924.34
2018-09-24T15:05:30.620Z,100929.87
2018-09-24T15:08:11.121Z,100927.52
2018-09-24T15:10:51.283Z,100926.86
2018-09-24T15:13:31.638Z,100936.70
2018-09-24T15:16:11.384Z,100926.88
2018-09-24T15:18:51.449Z,100927.72
2018-09-24T15:21:31.524Z,100930.88
2018-09-24T15:24:11.645Z,100933.06
2018-09-24T15:26:51.818Z,100933.88
2018-09-24T15:29:31.925Z,100930.04
2018-09-24T15:32:12.214Z,100934.05
2018-09-24T15:34:52.265Z,100937.39
2018-09-24T15:37:32.385Z,100929.88
2018-09-24T15:40:12.219Z,100934.23
2018-09-24T15:42:52.217Z,100931.20
2018-09-24T15:45:32.041Z,100932.05
2018-09-24T15:48:11.465Z,100934.72
2018-09-24T15:50:50.726Z,100946.25
2018-09-24T15:53:30.049Z,100940.73
2018-09-24T15:56:09.498Z,100936.73
2018-09-24T15:58:48.952Z,100936.56
2018-09-24T16:01:29.048Z,100936.56
2018-09-24T16:04:08.766Z,100940.25
2018-09-24T16:06:48.222Z,100942.40
2018-09-24T16:09:27.810Z,100946.75
2018-09-24T16:12:07.252Z,100938.92
2018-09-24T16:14:47.040Z,100937.73
2018-09-24T16:17:26.771Z,100930.73
2018-09-24T16:20:06.398Z,100942.75
2018-09-24T16:22:46.617Z,100936.73
2018-09-24T16:25:26.260Z,100937.22
2018-09-24T16:28:06.066Z,100932.88
2018-09-24T16:30:46.049Z,100938.39
2018-09-24T16:33:26.405Z,100936.03
2018-09-24T16:38:40.634Z,100943.91
2018-09-24T16:41:21.241Z,100937.88
2018-09-24T16:44:00.912Z,100934.72
2018-09-24T16:46:41.072Z,100935.88
2018-09-24T16:49:21.058Z,100936.07
2018-09-24T16:52:01.236Z,100934.06
2018-09-24T16:54:41.436Z,100933.39
2018-09-24T16:57:21.153Z,100926.52
2018-09-24T17:00:00.841Z,100938.40
2018-09-24T17:02:40.677Z,100942.41
2018-09-24T17:05:20.441Z,100945.06
2018-09-24T17:07:59.820Z,100942.56
2018-09-24T17:10:39.665Z,100947.23
2018-09-24T17:13:19.233Z,100946.06
2018-09-24T17:15:59.048Z,100942.71
2018-09-24T17:18:38.869Z,100938.02
2018-09-24T17:21:18.356Z,100940.70
2018-09-24T17:23:57.826Z,100942.34
2018-09-24T17:26:37.047Z,100937.34
2018-09-24T17:29:17.001Z,100932.66
2018-09-24T17:31:57.932Z,100923.12
2018-09-24T17:34:37.530Z,100929.29
2018-09-24T17:37:17.077Z,100926.28
2018-09-24T17:39:56.904Z,100925.78
2018-09-24T17:42:37.242Z,100928.09
2018-09-24T17:45:16.846Z,100920.58
2018-09-24T17:47:56.850Z,100923.73
2018-09-24T17:50:36.988Z,100914.19
2018-09-24T17:53:16.781Z,100924.05
2018-09-24T17:55:57.057Z,100922.03
2018-09-24T17:58:36.651Z,100924.52
2018-09-24T18:01:16.449Z,100921.52
2018-09-24T18:03:55.945Z,100921.33
2018-09-24T18:06:35.435Z,100922.67
2018-09-24T18:09:16.262Z,100918.51
2018-09-24T18:11:55.553Z,100919.16
2018-09-24T18:14:34.854Z,100914.47
2018-09-24T18:17:14.521Z,100911.30
2018-09-24T18:19:53.908Z,100903.58
2018-09-24T18:22:34.099Z,100905.08
2018-09-24T18:25:13.632Z,100906.58
2018-09-24T18:27:52.914Z,100902.38
2018-09-24T18:30:32.790Z,100900.17
2018-09-24T18:33:12.706Z,100896.69
2018-09-24T18:35:52.221Z,100897.99
2018-09-24T18:38:31.932Z,100891.61
2018-09-24T18:41:11.457Z,100892.30
2018-09-24T18:43:51.222Z,100885.42
2018-09-24T18:46:31.003Z,100883.90
2018-09-24T18:49:10.901Z,100885.89
2018-09-24T18:51:50.717Z,100879.05
2018-09-24T18:54:30.274Z,100878.36
2018-09-24T18:57:10.109Z,100877.52
2018-09-24T18:59:50.331Z,100874.16
2018-09-24T19:02:29.939Z,100868.61
2018-09-24T19:05:09.757Z,100876.80
2018-09-24T19:07:49.129Z,100873.12
2018-09-24T19:10:28.836Z,100872.75
2018-09-24T19:13:08.506Z,100871.06
2018-09-24T19:15:48.346Z,100878.75
2018-09-24T19:18:27.932Z,100874.20
2018-09-24T19:21:07.517Z,100872.70
2018-09-24T19:23:47.284Z,100865.17
2018-09-24T19:26:27.023Z,100864.67
2018-09-24T19:29:06.706Z,100847.92
2018-09-24T19:31:46.480Z,100849.91
2018-09-24T19:34:26.114Z,100853.24
2018-09-24T19:37:05.832Z,100842.52
2018-09-24T19:39:45.418Z,100837.17
2018-09-24T19:42:25.048Z,100835.98
2018-09-24T19:45:04.842Z,100833.45
2018-09-24T19:47:42.732Z,100832.42
2018-09-24T19:50:22.119Z,100833.27
2018-09-24T19:53:01.941Z,100827.72
2018-09-24T19:55:41.729Z,100823.84
2018-09-24T19:58:21.442Z,100816.45
2018-09-24T20:01:01.112Z,100810.90
2018-09-24T20:03:40.889Z,100815.06
2018-09-24T20:06:20.757Z,100805.14
2018-09-24T20:09:00.297Z,100797.75
2018-09-24T20:11:39.583Z,100798.02
2018-09-24T20:14:19.280Z,100794.28
2018-09-24T20:16:58.957Z,100784.35
2018-09-24T20:19:38.823Z,100782.96
2018-09-24T20:22:18.720Z,100780.56
2018-09-24T20:24:58.460Z,100771.97
2018-09-24T20:27:38.255Z,100774.33
2018-09-24T20:30:18.024Z,100772.93
2018-09-24T20:32:57.807Z,100768.02
2018-09-24T20:35:37.518Z,100770.47
2018-09-24T20:38:17.080Z,100762.03
2018-09-24T20:40:56.893Z,100759.50
2018-09-24T20:46:27.111Z,100754.47
2018-09-24T20:49:06.473Z,100747.52
2018-09-24T20:51:45.885Z,100743.77
2018-09-24T20:54:25.317Z,100742.86
2018-09-24T20:57:04.765Z,100739.61
2018-09-24T20:59:44.321Z,100731.70
2018-09-24T21:02:23.602Z,100727.81
2018-09-24T21:05:03.176Z,100725.77
2018-09-24T21:07:42.761Z,100723.23
2018-09-24T21:10:22.483Z,100723.80
2018-09-24T21:13:01.997Z,100721.61
2018-09-24T21:15:41.991Z,100721.55
2018-09-24T21:18:21.599Z,100719.30
2018-09-24T21:21:01.306Z,100720.06
2018-09-24T21:23:40.833Z,100714.33
2018-09-24T21:28:38.993Z,100708.89
2018-09-24T21:31:19.066Z,100706.47
2018-09-24T21:33:58.531Z,100699.68
2018-09-24T21:36:38.278Z,100699.81
2018-09-24T21:39:17.956Z,100701.08
2018-09-24T21:41:57.859Z,100697.48
2018-09-24T21:44:37.578Z,100700.09
2018-09-24T21:47:17.949Z,100690.31
2018-09-24T21:49:57.733Z,100683.10
2018-09-24T21:52:38.175Z,100684.57
2018-09-24T21:55:17.813Z,100678.49
2018-09-24T21:57:57.341Z,100681.80
2018-09-24T22:00:36.889Z,100676.23
2018-09-24T22:03:16.337Z,100681.42
2018-09-24T22:05:55.999Z,100678.03
2018-09-24T22:08:35.917Z,100673.95
2018-09-24T22:11:15.616Z,100675.92
2018-09-24T22:13:55.123Z,100680.08
2018-09-24T22:16:35.352Z,100679.88
2018-09-24T22:19:15.344Z,100680.00
2018-09-24T22:21:55.024Z,100681.46
2018-09-24T22:24:34.917Z,100680.03
2018-09-24T22:27:14.529Z,100675.92
2018-09-24T22:29:54.180Z,100670.67
2018-09-24T22:32:33.934Z,100674.28
2018-09-24T22:35:13.879Z,100673.39
2018-09-24T22:37:53.417Z,100673.81
2018-09-24T22:40:33.153Z,100667.34
2018-09-24T22:43:12.747Z,100670.45
2018-09-24T22:45:52.346Z,100670.39
2018-09-24T22:48:32.919Z,100664.80
2018-09-24T22:51:12.182Z,100663.77
2018-09-24T22:53:51.517Z,100672.42
2018-09-24T22:56:31.372Z,100669.52
2018-09-24T22:59:11.065Z,100671.61
2018-09-24T23:01:50.833Z,100670.69
2018-09-24T23:04:30.559Z,100676.69
2018-09-24T23:07:10.517Z,100675.97
2018-09-24T23:12:08.073Z,100668.56
2018-09-24T23:14:47.827Z,100673.52
2018-09-24T23:17:27.522Z,100671.98
2018-09-24T23:20:07.004Z,100668.25
2018-09-24T23:22:46.769Z,100667.75
2018-09-24T23:25:26.497Z,100664.84
2018-09-24T23:28:06.137Z,100668.37
2018-09-24T23:30:45.910Z,100663.62
2018-09-24T23:33:25.211Z,100666.30
2018-09-24T23:36:04.645Z,100669.33
2018-09-24T23:38:44.203Z,100669.62
2018-09-24T23:41:23.805Z,100673.98
2018-09-24T23:44:03.544Z,100676.84
2018-09-24T23:46:42.962Z,100676.34
2018-09-24T23:49:22.901Z,100682.34
2018-09-24T23:52:02.848Z,100682.84
2018-09-24T23:54:42.501Z,100679.98
2018-09-24T23:57:22.026Z,100682.67
